sensor_id;sensor_type;location;lat;lon;timestamp;pressure;altitude;pressure_sealevel;temperature;humidity
60258;BME280;46115;44.484;11.314;2023-11-21T00:02:53;99730.81;;;10.84;85.25
60258;BME280;46115;44.484;11.314;2023-11-21T00:06:55;99738.53;;;10.58;85.41
60258;BME280;46115;44.484;11.314;2023-11-21T00:10:59;99716.94;;;10.80;84.90
60258;BME280;46115;44.484;11.314;2023-11-21T00:15:03;99722.75;;;10.71;85.84
60258;BME280;46115;44.484;11.314;2023-11-21T00:19:06;99728.69;;;11.59;82.78
60258;BME280;46115;44.484;11.314;2023-11-21T00:23:08;99721.22;;;11.24;83.19
60258;BME280;46115;44.484;11.314;2023-11-21T00:27:40;99711.03;;;11.18;84.05
60258;BME280;46115;44.484;11.314;2023-11-21T00:31:42;99713.22;;;10.97;84.22
60258;BME280;46115;44.484;11.314;2023-11-21T00:35:45;99720.50;;;10.93;84.99
60258;BME280;46115;44.484;11.314;2023-11-21T00:39:47;99735.31;;;11.10;84.43
60258;BME280;46115;44.484;11.314;2023-11-21T00:43:51;99729.00;;;10.99;84.32
60258;BME280;46115;44.484;11.314;2023-11-21T00:47:53;99728.03;;;11.00;85.17
60258;BME280;46115;44.484;11.314;2023-11-21T00:51:56;99712.53;;;11.08;84.80
60258;BME280;46115;44.484;11.314;2023-11-21T00:56:00;99698.41;;;10.94;84.28
60258;BME280;46115;44.484;11.314;2023-11-21T01:00:06;99684.72;;;10.74;85.36
60258;BME280;46115;44.484;11.314;2023-11-21T01:04:10;99677.72;;;10.73;85.57
60258;BME280;46115;44.484;11.314;2023-11-21T01:08:13;99686.81;;;10.83;85.33
60258;BME280;46115;44.484;11.314;2023-11-21T01:12:16;99675.38;;;10.68;85.69
60258;BME280;46115;44.484;11.314;2023-11-21T01:16:20;99651.03;;;10.63;86.50
60258;BME280;46115;44.484;11.314;2023-11-21T01:20:22;99653.94;;;10.58;87.82
60258;BME280;46115;44.484;11.314;2023-11-21T01:24:24;99626.28;;;10.64;86.39
60258;BME280;46115;44.484;11.314;2023-11-21T01:28:27;99619.59;;;10.58;86.35
60258;BME280;46115;44.484;11.314;2023-11-21T01:32:31;99594.50;;;10.51;88.17
60258;BME280;46115;44.484;11.314;2023-11-21T01:36:33;99591.53;;;10.70;87.36
60258;BME280;46115;44.484;11.314;2023-11-21T01:40:36;99583.44;;;10.59;87.95
60258;BME280;46115;44.484;11.314;2023-11-21T01:44:39;99573.72;;;10.59;87.38
60258;BME280;46115;44.484;11.314;2023-11-21T01:48:43;99570.88;;;10.62;86.07
60258;BME280;46115;44.484;11.314;2023-11-21T01:52:46;99572.81;;;10.46;85.34
60258;BME280;46115;44.484;11.314;2023-11-21T01:56:49;99561.28;;;10.33;86.43
60258;BME280;46115;44.484;11.314;2023-11-21T02:00:52;99568.63;;;10.56;84.83
60258;BME280;46115;44.484;11.314;2023-11-21T02:04:57;99571.84;;;10.61;84.55
60258;BME280;46115;44.484;11.314;2023-11-21T02:09:00;99588.84;;;10.99;83.58
60258;BME280;46115;44.484;11.314;2023-11-21T02:13:02;99606.41;;;11.66;79.62
60258;BME280;46115;44.484;11.314;2023-11-21T02:17:05;99614.06;;;11.71;80.08
60258;BME280;46115;44.484;11.314;2023-11-21T02:21:10;99621.03;;;12.24;79.25
60258;BME280;46115;44.484;11.314;2023-11-21T02:25:14;99613.63;;;11.64;80.65
60258;BME280;46115;44.484;11.314;2023-11-21T02:29:17;99618.19;;;11.75;80.32
60258;BME280;46115;44.484;11.314;2023-11-21T02:33:20;99623.66;;;12.11;77.95
60258;BME280;46115;44.484;11.314;2023-11-21T02:37:23;99633.84;;;11.92;79.31
60258;BME280;46115;44.484;11.314;2023-11-21T02:41:29;99621.97;;;12.10;77.82
60258;BME280;46115;44.484;11.314;2023-11-21T02:45:31;99621.34;;;12.07;78.03
60258;BME280;46115;44.484;11.314;2023-11-21T02:49:34;99625.06;;;12.17;78.02
60258;BME280;46115;44.484;11.314;2023-11-21T02:53:37;99629.28;;;12.45;76.25
60258;BME280;46115;44.484;11.314;2023-11-21T02:57:41;99619.25;;;11.33;81.18
60258;BME280;46115;44.484;11.314;2023-11-21T03:01:44;99601.34;;;11.76;79.82
60258;BME280;46115;44.484;11.314;2023-11-21T03:05:46;99606.19;;;11.83;79.92
60258;BME280;46115;44.484;11.314;2023-11-21T03:09:49;99578.84;;;11.43;81.03
60258;BME280;46115;44.484;11.314;2023-11-21T03:13:53;99551.31;;;10.79;82.96
60258;BME280;46115;44.484;11.314;2023-11-21T03:17:55;99555.22;;;10.59;84.93
60258;BME280;46115;44.484;11.314;2023-11-21T03:21:58;99558.97;;;11.50;81.73
60258;BME280;46115;44.484;11.314;2023-11-21T03:26:01;99551.59;;;11.29;81.81
60258;BME280;46115;44.484;11.314;2023-11-21T03:30:09;99574.72;;;11.92;80.06
60258;BME280;46115;44.484;11.314;2023-11-21T03:34:23;99572.44;;;11.73;80.16
60258;BME280;46115;44.484;11.314;2023-11-21T03:38:26;99585.13;;;11.68;80.90
60258;BME280;46115;44.484;11.314;2023-11-21T03:42:29;99590.69;;;11.38;82.85
60258;BME280;46115;44.484;11.314;2023-11-21T03:46:33;99575.06;;;11.60;80.46
60258;BME280;46115;44.484;11.314;2023-11-21T03:50:35;99574.91;;;11.09;82.67
60258;BME280;46115;44.484;11.314;2023-11-21T03:54:38;99601.88;;;11.29;83.95
60258;BME280;46115;44.484;11.314;2023-11-21T03:58:41;99589.56;;;11.81;80.62
60258;BME280;46115;44.484;11.314;2023-11-21T04:02:45;99601.53;;;12.25;79.25
60258;BME280;46115;44.484;11.314;2023-11-21T04:06:48;99590.28;;;10.90;83.47
60258;BME280;46115;44.484;11.314;2023-11-21T04:10:52;99571.56;;;10.93;85.18
60258;BME280;46115;44.484;11.314;2023-11-21T04:14:56;99559.19;;;10.93;85.15
60258;BME280;46115;44.484;11.314;2023-11-21T04:19:00;99532.19;;;10.76;84.03
60258;BME280;46115;44.484;11.314;2023-11-21T04:23:02;99568.91;;;11.47;82.53
60258;BME280;46115;44.484;11.314;2023-11-21T04:27:05;99589.75;;;11.91;80.55
60258;BME280;46115;44.484;11.314;2023-11-21T04:31:07;99586.94;;;11.67;81.50
60258;BME280;46115;44.484;11.314;2023-11-21T04:35:11;99602.91;;;11.26;82.86
60258;BME280;46115;44.484;11.314;2023-11-21T04:39:14;99592.22;;;12.20;79.27
60258;BME280;46115;44.484;11.314;2023-11-21T04:43:16;99582.78;;;11.11;83.52
60258;BME280;46115;44.484;11.314;2023-11-21T04:47:19;99581.53;;;11.16;84.17
60258;BME280;46115;44.484;11.314;2023-11-21T04:51:24;99545.03;;;11.21;83.56
60258;BME280;46115;44.484;11.314;2023-11-21T04:55:26;99531.91;;;10.93;85.95
60258;BME280;46115;44.484;11.314;2023-11-21T04:59:29;99519.53;;;10.67;85.83
60258;BME280;46115;44.484;11.314;2023-11-21T05:03:32;99544.88;;;10.83;84.68
60258;BME280;46115;44.484;11.314;2023-11-21T05:07:36;99542.78;;;11.15;84.45
60258;BME280;46115;44.484;11.314;2023-11-21T05:11:38;99554.28;;;11.94;80.67
60258;BME280;46115;44.484;11.314;2023-11-21T05:15:42;99561.00;;;11.60;82.20
60258;BME280;46115;44.484;11.314;2023-11-21T05:19:45;99544.59;;;10.88;84.49
60258;BME280;46115;44.484;11.314;2023-11-21T05:23:51;99532.31;;;11.14;83.76
60258;BME280;46115;44.484;11.314;2023-11-21T05:27:53;99552.84;;;11.10;84.50
60258;BME280;46115;44.484;11.314;2023-11-21T05:31:56;99545.31;;;11.69;82.31
60258;BME280;46115;44.484;11.314;2023-11-21T05:35:59;99552.56;;;11.40;83.12
60258;BME280;46115;44.484;11.314;2023-11-21T05:40:04;99541.28;;;11.51;83.32
60258;BME280;46115;44.484;11.314;2023-11-21T05:44:07;99562.88;;;11.45;83.28
60258;BME280;46115;44.484;11.314;2023-11-21T05:48:10;99543.00;;;11.12;83.75
60258;BME280;46115;44.484;11.314;2023-11-21T05:52:13;99551.31;;;11.06;83.75
60258;BME280;46115;44.484;11.314;2023-11-21T05:56:17;99534.13;;;10.72;85.38
60258;BME280;46115;44.484;11.314;2023-11-21T06:00:20;99537.16;;;10.80;85.54
60258;BME280;46115;44.484;11.314;2023-11-21T06:04:23;99539.81;;;10.80;86.15
60258;BME280;46115;44.484;11.314;2023-11-21T06:08:27;99551.31;;;11.06;84.97
60258;BME280;46115;44.484;11.314;2023-11-21T06:12:31;99546.34;;;11.81;80.96
60258;BME280;46115;44.484;11.314;2023-11-21T06:16:36;99536.75;;;11.53;81.45
60258;BME280;46115;44.484;11.314;2023-11-21T06:20:39;99531.19;;;11.43;82.13
60258;BME280;46115;44.484;11.314;2023-11-21T06:24:41;99527.81;;;11.41;81.43
60258;BME280;46115;44.484;11.314;2023-11-21T06:28:45;99513.44;;;11.45;80.77
60258;BME280;46115;44.484;11.314;2023-11-21T06:32:48;99519.84;;;12.19;78.99
60258;BME280;46115;44.484;11.314;2023-11-21T06:36:52;99488.38;;;12.14;78.62
60258;BME280;46115;44.484;11.314;2023-11-21T06:40:54;99507.66;;;11.91;80.08
60258;BME280;46115;44.484;11.314;2023-11-21T06:44:58;99480.41;;;10.99;82.16
60258;BME280;46115;44.484;11.314;2023-11-21T06:49:05;99540.16;;;11.28;82.09
60258;BME280;46115;44.484;11.314;2023-11-21T06:53:07;99549.03;;;11.67;80.44
60258;BME280;46115;44.484;11.314;2023-11-21T06:57:11;99554.25;;;11.29;82.65
60258;BME280;46115;44.484;11.314;2023-11-21T07:01:15;99563.25;;;11.26;81.81
60258;BME280;46115;44.484;11.314;2023-11-21T07:05:17;99556.81;;;11.03;81.87
60258;BME280;46115;44.484;11.314;2023-11-21T07:09:22;99553.59;;;11.65;80.44
60258;BME280;46115;44.484;11.314;2023-11-21T07:13:24;99555.00;;;11.96;79.35
60258;BME280;46115;44.484;11.314;2023-11-21T07:17:28;99552.78;;;11.37;82.02
60258;BME280;46115;44.484;11.314;2023-11-21T07:21:31;99560.78;;;11.63;81.22
60258;BME280;46115;44.484;11.314;2023-11-21T07:25:33;99553.06;;;11.20;82.84
60258;BME280;46115;44.484;11.314;2023-11-21T07:29:36;99552.53;;;11.15;83.67
60258;BME280;46115;44.484;11.314;2023-11-21T07:33:40;99551.91;;;11.24;84.29
60258;BME280;46115;44.484;11.314;2023-11-21T07:37:42;99522.47;;;11.16;84.95
60258;BME280;46115;44.484;11.314;2023-11-21T07:41:45;99535.94;;;10.99;87.34
60258;BME280;46115;44.484;11.314;2023-11-21T07:45:49;99543.13;;;10.97;88.62
60258;BME280;46115;44.484;11.314;2023-11-21T07:49:53;99548.03;;;11.03;88.40
60258;BME280;46115;44.484;11.314;2023-11-21T07:53:57;99551.22;;;11.08;89.42
60258;BME280;46115;44.484;11.314;2023-11-21T07:57:59;99541.41;;;10.83;91.47
60258;BME280;46115;44.484;11.314;2023-11-21T08:02:02;99535.75;;;11.02;93.71
60258;BME280;46115;44.484;11.314;2023-11-21T08:06:07;99535.84;;;11.00;93.56
60258;BME280;46115;44.484;11.314;2023-11-21T08:10:10;99538.47;;;10.87;94.60
60258;BME280;46115;44.484;11.314;2023-11-21T08:14:13;99539.00;;;11.19;93.55
60258;BME280;46115;44.484;11.314;2023-11-21T08:18:16;99528.75;;;11.28;93.78
60258;BME280;46115;44.484;11.314;2023-11-21T08:22:20;99552.16;;;11.86;92.72
60258;BME280;46115;44.484;11.314;2023-11-21T08:26:23;99549.47;;;12.37;91.18
60258;BME280;46115;44.484;11.314;2023-11-21T08:30:26;99547.56;;;12.39;90.67
60258;BME280;46115;44.484;11.314;2023-11-21T08:34:31;99550.22;;;12.26;90.98
60258;BME280;46115;44.484;11.314;2023-11-21T08:38:35;99527.47;;;11.85;93.74
60258;BME280;46115;44.484;11.314;2023-11-21T08:42:39;99562.91;;;12.46;91.80
60258;BME280;46115;44.484;11.314;2023-11-21T08:46:41;99556.34;;;12.39;91.73
60258;BME280;46115;44.484;11.314;2023-11-21T08:50:46;99536.41;;;12.46;89.54
60258;BME280;46115;44.484;11.314;2023-11-21T08:54:50;99540.97;;;12.57;88.05
60258;BME280;46115;44.484;11.314;2023-11-21T08:58:57;99558.34;;;12.48;88.36
60258;BME280;46115;44.484;11.314;2023-11-21T09:03:01;99545.66;;;12.41;88.69
60258;BME280;46115;44.484;11.314;2023-11-21T09:07:04;99548.69;;;12.47;87.15
60258;BME280;46115;44.484;11.314;2023-11-21T09:11:08;99536.41;;;12.46;87.31
60258;BME280;46115;44.484;11.314;2023-11-21T09:15:11;99552.47;;;11.94;90.63
60258;BME280;46115;44.484;11.314;2023-11-21T09:19:14;99561.59;;;12.15;91.24
60258;BME280;46115;44.484;11.314;2023-11-21T09:23:16;99558.91;;;12.41;89.28
60258;BME280;46115;44.484;11.314;2023-11-21T09:27:20;99549.25;;;12.40;89.70
60258;BME280;46115;44.484;11.314;2023-11-21T09:31:23;99560.81;;;12.52;88.77
60258;BME280;46115;44.484;11.314;2023-11-21T09:35:26;99561.97;;;12.35;89.57
60258;BME280;46115;44.484;11.314;2023-11-21T09:39:29;99555.28;;;11.66;93.50
60258;BME280;46115;44.484;11.314;2023-11-21T09:43:34;99562.09;;;12.08;91.47
60258;BME280;46115;44.484;11.314;2023-11-21T09:47:39;99550.53;;;12.34;88.81
60258;BME280;46115;44.484;11.314;2023-11-21T09:51:42;99524.88;;;11.71;90.54
60258;BME280;46115;44.484;11.314;2023-11-21T09:55:47;99561.25;;;12.33;90.11
60258;BME280;46115;44.484;11.314;2023-11-21T09:59:54;99563.50;;;12.26;89.52
60258;BME280;46115;44.484;11.314;2023-11-21T10:04:00;99563.09;;;12.69;88.36
60258;BME280;46115;44.484;11.314;2023-11-21T10:08:04;99547.09;;;12.58;88.71
60258;BME280;46115;44.484;11.314;2023-11-21T10:12:10;99566.41;;;12.60;88.26
60258;BME280;46115;44.484;11.314;2023-11-21T10:16:18;99560.50;;;12.80;87.05
60258;BME280;46115;44.484;11.314;2023-11-21T10:20:23;99540.25;;;11.66;92.42
60258;BME280;46115;44.484;11.314;2023-11-21T10:24:26;99574.84;;;11.50;94.27
60258;BME280;46115;44.484;11.314;2023-11-21T10:28:29;99591.69;;;10.96;98.57
60258;BME280;46115;44.484;11.314;2023-11-21T10:32:33;99581.97;;;11.23;98.52
60258;BME280;46115;44.484;11.314;2023-11-21T10:36:36;99561.94;;;11.59;97.68
60258;BME280;46115;44.484;11.314;2023-11-21T10:40:38;99560.53;;;12.18;92.89
60258;BME280;46115;44.484;11.314;2023-11-21T10:44:42;99544.41;;;11.96;95.25
60258;BME280;46115;44.484;11.314;2023-11-21T10:48:52;99530.28;;;12.33;93.22
60258;BME280;46115;44.484;11.314;2023-11-21T10:52:55;99527.88;;;12.30;92.25
60258;BME280;46115;44.484;11.314;2023-11-21T10:57:00;99529.03;;;12.26;92.37
60258;BME280;46115;44.484;11.314;2023-11-21T11:01:06;99521.66;;;12.55;89.12
60258;BME280;46115;44.484;11.314;2023-11-21T11:05:10;99525.78;;;11.84;92.07
60258;BME280;46115;44.484;11.314;2023-11-21T11:09:13;99522.97;;;12.49;89.68
60258;BME280;46115;44.484;11.314;2023-11-21T11:13:18;99517.06;;;12.08;93.34
60258;BME280;46115;44.484;11.314;2023-11-21T11:17:21;99526.31;;;11.90;92.17
60258;BME280;46115;44.484;11.314;2023-11-21T11:21:31;99522.16;;;11.20;93.78
60258;BME280;46115;44.484;11.314;2023-11-21T11:26:01;99516.94;;;11.46;93.40
60258;BME280;46115;44.484;11.314;2023-11-21T11:30:19;99519.16;;;11.65;92.79
60258;BME280;46115;44.484;11.314;2023-11-21T11:34:29;99493.06;;;11.20;96.17
60258;BME280;46115;44.484;11.314;2023-11-21T11:38:34;99472.75;;;10.81;97.16
60258;BME280;46115;44.484;11.314;2023-11-21T11:42:37;99491.28;;;11.21;95.98
60258;BME280;46115;44.484;11.314;2023-11-21T11:46:41;99503.56;;;11.22;97.17
60258;BME280;46115;44.484;11.314;2023-11-21T11:51:02;99508.84;;;11.22;96.94
60258;BME280;46115;44.484;11.314;2023-11-21T11:55:08;99499.75;;;10.86;97.03
60258;BME280;46115;44.484;11.314;2023-11-21T11:59:14;99499.03;;;11.75;94.92
60258;BME280;46115;44.484;11.314;2023-11-21T12:03:16;99491.94;;;11.75;94.96
60258;BME280;46115;44.484;11.314;2023-11-21T12:07:19;99488.28;;;11.78;95.18
60258;BME280;46115;44.484;11.314;2023-11-21T12:11:30;99482.97;;;12.16;93.16
60258;BME280;46115;44.484;11.314;2023-11-21T12:15:33;99473.72;;;11.33;93.85
60258;BME280;46115;44.484;11.314;2023-11-21T12:19:36;99461.75;;;11.27;96.41
60258;BME280;46115;44.484;11.314;2023-11-21T12:23:39;99473.97;;;11.68;95.10
60258;BME280;46115;44.484;11.314;2023-11-21T12:27:45;99470.44;;;11.29;97.39
60258;BME280;46115;44.484;11.314;2023-11-21T12:31:50;99476.88;;;11.12;95.50
60258;BME280;46115;44.484;11.314;2023-11-21T12:35:53;99470.84;;;11.10;94.94
60258;BME280;46115;44.484;11.314;2023-11-21T12:39:55;99490.13;;;11.38;95.38
60258;BME280;46115;44.484;11.314;2023-11-21T12:44:00;99489.22;;;12.15;91.80
60258;BME280;46115;44.484;11.314;2023-11-21T12:48:05;99481.34;;;11.37;94.60
60258;BME280;46115;44.484;11.314;2023-11-21T12:52:09;99471.59;;;11.12;96.15
60258;BME280;46115;44.484;11.314;2023-11-21T12:56:13;99469.06;;;11.11;95.59
60258;BME280;46115;44.484;11.314;2023-11-21T13:00:19;99481.59;;;11.07;97.74
60258;BME280;46115;44.484;11.314;2023-11-21T13:04:30;99479.34;;;10.88;98.36
60258;BME280;46115;44.484;11.314;2023-11-21T13:08:33;99472.53;;;11.11;98.34
60258;BME280;46115;44.484;11.314;2023-11-21T13:12:36;99468.84;;;11.14;94.77
60258;BME280;46115;44.484;11.314;2023-11-21T13:16:42;99458.38;;;11.25;96.13
60258;BME280;46115;44.484;11.314;2023-11-21T13:20:47;99456.78;;;11.22;97.28
60258;BME280;46115;44.484;11.314;2023-11-21T13:24:50;99476.22;;;11.86;96.01
60258;BME280;46115;44.484;11.314;2023-11-21T13:28:54;99474.34;;;11.11;95.20
60258;BME280;46115;44.484;11.314;2023-11-21T13:32:59;99476.34;;;11.20;95.10
60258;BME280;46115;44.484;11.314;2023-11-21T13:37:03;99466.63;;;11.33;94.02
60258;BME280;46115;44.484;11.314;2023-11-21T13:41:09;99459.66;;;11.32;94.66
60258;BME280;46115;44.484;11.314;2023-11-21T13:45:13;99467.69;;;11.18;94.39
60258;BME280;46115;44.484;11.314;2023-11-21T13:49:19;99479.22;;;11.17;93.10
60258;BME280;46115;44.484;11.314;2023-11-21T13:53:22;99471.38;;;11.15;97.12
60258;BME280;46115;44.484;11.314;2023-11-21T13:57:25;99489.84;;;11.03;99.91
60258;BME280;46115;44.484;11.314;2023-11-21T14:01:28;99496.06;;;10.89;98.00
60258;BME280;46115;44.484;11.314;2023-11-21T14:05:56;99497.88;;;11.01;98.54
60258;BME280;46115;44.484;11.314;2023-11-21T14:09:59;99506.84;;;11.38;95.67
60258;BME280;46115;44.484;11.314;2023-11-21T14:14:04;99497.84;;;11.41;94.71
60258;BME280;46115;44.484;11.314;2023-11-21T14:18:07;99501.22;;;11.30;96.77
60258;BME280;46115;44.484;11.314;2023-11-21T14:22:13;99467.81;;;11.67;95.38
60258;BME280;46115;44.484;11.314;2023-11-21T14:26:15;99488.47;;;12.00;93.29
60258;BME280;46115;44.484;11.314;2023-11-21T14:30:19;99481.91;;;12.42;90.54
60258;BME280;46115;44.484;11.314;2023-11-21T14:34:23;99471.19;;;11.31;97.49
60258;BME280;46115;44.484;11.314;2023-11-21T14:38:29;99490.78;;;11.02;98.48
60258;BME280;46115;44.484;11.314;2023-11-21T14:42:31;99494.56;;;11.24;98.54
60258;BME280;46115;44.484;11.314;2023-11-21T14:46:34;99495.78;;;11.06;98.00
60258;BME280;46115;44.484;11.314;2023-11-21T14:50:38;99477.03;;;10.97;99.73
60258;BME280;46115;44.484;11.314;2023-11-21T14:54:52;99482.34;;;11.09;99.50
60258;BME280;46115;44.484;11.314;2023-11-21T14:59:15;99452.28;;;10.98;100.00
60258;BME280;46115;44.484;11.314;2023-11-21T15:03:18;99457.75;;;10.82;100.00
60258;BME280;46115;44.484;11.314;2023-11-21T15:07:43;99470.03;;;10.83;100.00
60258;BME280;46115;44.484;11.314;2023-11-21T15:11:47;99477.88;;;10.97;100.00
60258;BME280;46115;44.484;11.314;2023-11-21T15:15:49;99494.50;;;10.99;100.00
60258;BME280;46115;44.484;11.314;2023-11-21T15:19:53;99504.97;;;10.74;100.00
60258;BME280;46115;44.484;11.314;2023-11-21T15:23:55;99523.56;;;10.72;100.00
60258;BME280;46115;44.484;11.314;2023-11-21T15:27:59;99532.16;;;11.03;100.00
60258;BME280;46115;44.484;11.314;2023-11-21T15:32:02;99520.47;;;11.19;100.00
60258;BME280;46115;44.484;11.314;2023-11-21T15:36:05;99514.94;;;11.10;99.21
60258;BME280;46115;44.484;11.314;2023-11-21T15:40:11;99489.69;;;11.83;96.52
60258;BME280;46115;44.484;11.314;2023-11-21T15:44:17;99471.81;;;12.24;93.04
60258;BME280;46115;44.484;11.314;2023-11-21T15:48:19;99469.13;;;11.87;93.15
60258;BME280;46115;44.484;11.314;2023-11-21T15:52:22;99475.53;;;11.70;94.97
60258;BME280;46115;44.484;11.314;2023-11-21T15:56:24;99468.56;;;11.69;97.01
60258;BME280;46115;44.484;11.314;2023-11-21T16:00:28;99446.72;;;11.15;97.57
60258;BME280;46115;44.484;11.314;2023-11-21T23:06:09;99737.31;;;10.92;100.00
60258;BME280;46115;44.484;11.314;2023-11-21T23:10:12;99681.81;;;10.78;100.00
60258;BME280;46115;44.484;11.314;2023-11-21T23:14:15;99727.28;;;10.98;100.00
60258;BME280;46115;44.484;11.314;2023-11-21T23:18:17;99725.09;;;11.18;100.00
60258;BME280;46115;44.484;11.314;2023-11-21T23:22:27;99724.53;;;11.28;100.00
60258;BME280;46115;44.484;11.314;2023-11-21T23:26:29;99727.06;;;11.29;100.00
60258;BME280;46115;44.484;11.314;2023-11-21T23:30:32;99736.16;;;11.25;100.00
60258;BME280;46115;44.484;11.314;2023-11-21T23:34:35;99714.81;;;11.00;100.00
60258;BME280;46115;44.484;11.314;2023-11-21T23:38:41;99731.88;;;11.37;100.00
60258;BME280;46115;44.484;11.314;2023-11-21T23:42:43;99736.63;;;11.59;100.00
60258;BME280;46115;44.484;11.314;2023-11-21T23:46:46;99706.25;;;10.82;100.00
60258;BME280;46115;44.484;11.314;2023-11-21T23:50:48;99747.09;;;11.33;100.00
60258;BME280;46115;44.484;11.314;2023-11-21T23:54:52;99741.53;;;11.23;100.00
60258;BME280;46115;44.484;11.314;2023-11-21T23:58:55;99739.38;;;11.16;100.00
